Time;durP1;ratioP1;P1;durP2;ratioP2;P2;SDS_P1;SDS_P2;PMS_P1;PMS_P2;Temp;Humidity;BMP_temperature;BMP_pressure;BME280_temperature;BME280_humidity;BME280_pressure;Samples;Min_cycle;Max_cycle;Signal;HPM_P1;HPM_P2
2023/03/25 00:00:24;;;;;;;1.77;1.50;;;20.90;48.60;;;;;;5078668;28;20473;-80
2023/03/25 00:02:52;;;;;;;4.00;1.50;;;20.90;48.70;;;;;;5074365;28;20455;-80
2023/03/25 00:05:21;;;;;;;3.33;1.93;;;20.80;48.70;;;;;;5074541;28;20453;-79
2023/03/25 00:07:50;;;;;;;2.90;1.60;;;20.80;48.80;;;;;;5074200;28;20477;-80
2023/03/25 00:10:18;;;;;;;3.90;1.70;;;20.80;48.80;;;;;;5078144;28;20442;-81
2023/03/25 00:12:48;;;;;;;2.13;1.67;;;20.80;48.70;;;;;;5078217;28;20457;-80
2023/03/25 00:15:16;;;;;;;1.90;1.50;;;20.80;48.80;;;;;;5079422;28;20442;-81
2023/03/25 00:17:44;;;;;;;2.33;1.70;;;20.80;48.90;;;;;;5072902;28;20545;-80
2023/03/25 00:20:13;;;;;;;2.90;1.53;;;20.70;49.00;;;;;;5076663;28;20516;-80
2023/03/25 00:22:42;;;;;;;4.17;1.80;;;20.80;48.80;;;;;;5074953;28;20451;-81
2023/03/25 00:25:12;;;;;;;3.57;2.10;;;20.80;49.00;;;;;;5074723;28;20456;-80
2023/03/25 00:27:42;;;;;;;2.00;1.50;;;20.70;48.80;;;;;;5075548;28;20486;-80
2023/03/25 00:30:13;;;;;;;3.30;1.60;;;20.70;48.90;;;;;;5072739;28;20454;-80
2023/03/25 00:32:44;;;;;;;3.20;1.83;;;20.70;48.90;;;;;;5079241;28;20529;-81
2023/03/25 00:35:18;;;;;;;1.77;1.67;;;20.70;48.80;;;;;;5072982;28;20454;-80
2023/03/25 00:37:46;;;;;;;6.63;2.03;;;20.70;48.80;;;;;;5076458;28;20481;-81
2023/03/25 00:40:14;;;;;;;3.13;1.57;;;20.70;49.00;;;;;;5077839;28;20472;-82
2023/03/25 00:42:43;;;;;;;4.73;1.80;;;20.70;48.80;;;;;;5075344;28;20450;-81
2023/03/25 00:45:13;;;;;;;1.77;1.50;;;20.70;49.00;;;;;;5073411;28;20452;-81
2023/03/25 00:47:41;;;;;;;3.07;1.80;;;20.60;48.90;;;;;;5077033;28;20488;-81
2023/03/25 00:50:10;;;;;;;2.80;1.70;;;20.70;49.10;;;;;;5074564;28;20450;-81
2023/03/25 00:52:38;;;;;;;4.90;1.87;;;20.60;48.90;;;;;;5074567;28;20449;-81
2023/03/25 00:55:07;;;;;;;1.97;1.40;;;20.60;49.00;;;;;;5084047;28;20452;-80
2023/03/25 00:57:35;;;;;;;2.87;1.70;;;20.60;49.00;;;;;;5078703;28;20458;-80
2023/03/25 01:00:05;;;;;;;2.40;1.70;;;20.60;49.10;;;;;;5078023;28;20456;-79
2023/03/25 01:02:34;;;;;;;2.53;2.03;;;20.60;49.00;;;;;;5079082;28;20532;-81
2023/03/25 01:05:03;;;;;;;2.13;1.63;;;20.60;49.00;;;;;;5081889;28;20462;-80
2023/03/25 01:07:32;;;;;;;2.43;1.80;;;20.60;49.00;;;;;;5071932;28;20478;-80
2023/03/25 01:10:00;;;;;;;4.27;1.50;;;20.60;49.00;;;;;;5082206;28;20461;-81
2023/03/25 01:12:28;;;;;;;2.33;1.93;;;20.60;49.00;;;;;;5077468;28;20476;-80
2023/03/25 01:14:56;;;;;;;4.37;1.80;;;20.60;49.20;;;;;;5078679;28;20460;-79
2023/03/25 01:17:24;;;;;;;2.60;1.70;;;20.60;49.00;;;;;;5083222;28;20477;-80
2023/03/25 01:19:54;;;;;;;2.70;1.83;;;20.50;49.00;;;;;;5078912;28;20462;-80
2023/03/25 01:22:22;;;;;;;2.50;1.70;;;20.50;48.90;;;;;;5075270;28;20473;-80
2023/03/25 01:24:50;;;;;;;5.03;2.00;;;20.50;49.00;;;;;;5076143;28;20453;-80
2023/03/25 01:27:18;;;;;;;2.83;2.07;;;20.50;48.90;;;;;;5074029;28;20484;-80
2023/03/25 01:29:46;;;;;;;1.63;1.53;;;20.50;49.00;;;;;;5072198;28;20532;-80
2023/03/25 01:32:14;;;;;;;2.83;1.80;;;20.50;48.70;;;;;;5072424;28;20456;-80
2023/03/25 01:34:45;;;;;;;5.73;1.90;;;20.50;48.80;;;;;;5076102;28;20453;-81
2023/03/25 01:37:16;;;;;;;2.97;2.20;;;20.50;49.00;;;;;;5075729;28;20475;-81
2023/03/25 01:39:45;;;;;;;2.37;1.80;;;20.50;48.90;;;;;;5074475;28;20870;-80
2023/03/25 01:42:13;;;;;;;3.70;1.87;;;20.50;49.00;;;;;;5076522;28;20470;-80
2023/03/25 01:45:20;;;;;;;2.43;2.00;;;20.50;48.80;;;;;;5078787;28;20454;-81
2023/03/25 01:47:49;;;;;;;4.50;2.00;;;20.50;48.90;;;;;;5069050;28;20480;-83
2023/03/25 01:50:17;;;;;;;3.67;2.67;;;20.50;48.90;;;;;;5077022;28;20473;-82
2023/03/25 01:52:50;;;;;;;3.80;3.03;;;20.50;49.00;;;;;;5077332;28;20476;-82
2023/03/25 01:55:20;;;;;;;8.17;3.07;;;20.40;48.90;;;;;;5079800;28;20540;-81
2023/03/25 01:57:53;;;;;;;5.70;3.40;;;20.50;48.90;;;;;;5078987;28;20537;-82
2023/03/25 02:00:21;;;;;;;7.50;4.23;;;20.40;48.90;;;;;;5078516;28;20454;-81
2023/03/25 02:02:51;;;;;;;7.33;4.10;;;20.40;49.60;;;;;;5074531;28;20470;-82
2023/03/25 02:05:21;;;;;;;6.67;4.10;;;20.40;49.10;;;;;;5077056;28;20458;-80
2023/03/25 02:07:51;;;;;;;5.20;3.90;;;20.40;49.10;;;;;;5067404;28;20444;-82
2023/03/25 02:10:19;;;;;;;6.97;4.87;;;20.40;48.90;;;;;;5074760;28;20487;-81
2023/03/25 02:12:47;;;;;;;6.50;4.27;;;20.40;49.10;;;;;;5075411;28;20459;-82
2023/03/25 02:15:16;;;;;;;7.10;4.47;;;20.40;49.00;;;;;;5071453;28;20457;-80
2023/03/25 02:17:57;;;;;;;7.00;4.97;;;20.40;49.00;;;;;;5075095;28;20488;-81
2023/03/25 02:20:53;;;;;;;6.17;4.60;;;20.40;49.00;;;;;;5070039;28;20505;-81
2023/03/25 02:23:56;;;;;;;6.60;4.73;;;20.30;48.80;;;;;;5075894;28;20456;-81
2023/03/25 02:26:55;;;;;;;6.63;4.77;;;20.30;49.00;;;;;;5073246;28;20441;-82
2023/03/25 02:29:26;;;;;;;6.43;4.10;;;20.40;49.00;;;;;;5063799;28;20533;-80
2023/03/25 02:32:01;;;;;;;4.90;4.40;;;20.30;48.80;;;;;;5077919;28;20556;-81
2023/03/25 02:34:55;;;;;;;8.33;4.30;;;20.30;48.90;;;;;;5075929;28;20453;-79
2023/03/25 02:37:57;;;;;;;6.70;4.83;;;20.30;49.10;;;;;;5072381;28;20465;-81
2023/03/25 02:40:26;;;;;;;5.13;3.90;;;20.30;48.80;;;;;;5076252;28;20453;-81
2023/03/25 02:42:55;;;;;;;5.30;3.50;;;20.20;49.00;;;;;;5072967;28;20473;-81
2023/03/25 02:45:25;;;;;;;5.50;3.80;;;20.20;49.00;;;;;;5074278;28;20816;-81
2023/03/25 02:47:54;;;;;;;9.27;3.80;;;20.20;49.00;;;;;;5070907;28;20622;-81
2023/03/25 02:50:25;;;;;;;4.43;3.70;;;20.20;49.00;;;;;;5075363;28;20464;-82
2023/03/25 02:52:56;;;;;;;4.87;3.77;;;20.20;49.00;;;;;;5075439;28;20442;-81
2023/03/25 02:55:25;;;;;;;3.60;3.30;;;20.20;49.10;;;;;;5077738;28;20453;-80
2023/03/25 02:57:53;;;;;;;4.90;3.83;;;20.10;49.00;;;;;;5077717;28;20473;-80
2023/03/25 03:00:23;;;;;;;5.87;3.33;;;20.10;49.00;;;;;;5065418;28;20457;-81
2023/03/25 03:02:58;;;;;;;4.50;3.10;;;20.10;49.10;;;;;;5073954;28;20473;-80
2023/03/25 03:05:27;;;;;;;4.80;3.70;;;20.10;49.10;;;;;;5070826;28;20449;-83
2023/03/25 03:08:03;;;;;;;4.80;3.60;;;20.10;49.00;;;;;;5073032;28;20484;-81
2023/03/25 03:10:34;;;;;;;4.20;3.10;;;20.10;49.20;;;;;;5079483;28;20473;-81
2023/03/25 03:13:05;;;;;;;3.97;3.30;;;20.00;49.00;;;;;;5077971;28;20457;-82
2023/03/25 03:15:37;;;;;;;6.40;3.40;;;20.00;49.10;;;;;;5077456;28;20468;-80
2023/03/25 03:18:09;;;;;;;7.40;3.00;;;20.00;49.10;;;;;;5078465;28;20466;-81
2023/03/25 03:20:39;;;;;;;4.10;2.93;;;20.00;48.90;;;;;;5080169;28;20469;-82
2023/03/25 03:23:12;;;;;;;5.73;3.20;;;20.00;49.10;;;;;;5075812;28;20477;-81
2023/03/25 03:25:43;;;;;;;5.60;3.10;;;20.00;49.00;;;;;;5072012;28;20449;-81
2023/03/25 03:28:15;;;;;;;3.20;2.43;;;20.00;49.10;;;;;;5078815;28;20468;-81
2023/03/25 03:30:45;;;;;;;2.90;2.70;;;19.90;49.00;;;;;;5074203;28;20523;-80
2023/03/25 03:33:15;;;;;;;4.50;2.80;;;20.00;49.20;;;;;;5072746;28;20469;-80
2023/03/25 03:35:48;;;;;;;4.03;3.37;;;19.90;49.20;;;;;;5073898;28;20450;-81
2023/03/25 03:38:20;;;;;;;5.17;2.80;;;19.90;49.10;;;;;;5068305;28;20556;-80
2023/03/25 03:40:50;;;;;;;4.83;3.13;;;19.90;49.20;;;;;;5068136;28;20551;-79
2023/03/25 03:43:21;;;;;;;2.77;2.30;;;19.90;49.20;;;;;;5066804;28;20476;-81
2023/03/25 03:45:50;;;;;;;4.07;2.50;;;19.90;49.30;;;;;;5074277;28;20458;-79
2023/03/25 03:48:21;;;;;;;6.30;2.73;;;19.90;49.20;;;;;;5066700;28;20477;-81
2023/03/25 03:50:50;;;;;;;5.90;2.43;;;19.90;49.30;;;;;;5066492;28;20461;-80
2023/03/25 03:53:21;;;;;;;4.47;2.60;;;19.90;49.30;;;;;;5069769;28;20461;-81
2023/03/25 03:55:50;;;;;;;5.20;2.40;;;19.90;49.40;;;;;;5071979;28;20452;-81
2023/03/25 03:58:21;;;;;;;4.50;2.47;;;19.90;49.40;;;;;;5069306;28;20485;-80
2023/03/25 04:00:51;;;;;;;2.77;2.17;;;19.80;49.30;;;;;;5070475;28;20461;-79
2023/03/25 04:03:23;;;;;;;2.63;2.20;;;19.80;49.40;;;;;;5068710;28;20469;-80
2023/03/25 04:05:53;;;;;;;4.10;2.17;;;19.80;49.40;;;;;;5072354;28;20550;-80
2023/03/25 04:08:27;;;;;;;5.03;2.57;;;19.80;49.40;;;;;;5069859;28;20470;-80
2023/03/25 04:10:57;;;;;;;3.50;2.40;;;19.80;49.50;;;;;;5075775;28;20481;-80
2023/03/25 04:13:28;;;;;;;2.70;2.00;;;19.70;49.60;;;;;;5074376;28;20506;-81
2023/03/25 04:15:59;;;;;;;4.70;2.60;;;19.70;49.60;;;;;;5077573;28;20446;-81
2023/03/25 04:18:27;;;;;;;4.50;2.30;;;19.70;49.70;;;;;;5070282;28;20520;-79
2023/03/25 04:20:55;;;;;;;4.47;2.40;;;19.70;49.80;;;;;;5068753;28;20481;-80
2023/03/25 04:23:25;;;;;;;3.33;2.00;;;19.70;49.80;;;;;;5067661;28;20470;-81
2023/03/25 04:25:53;;;;;;;5.27;2.60;;;19.70;49.80;;;;;;5070921;28;20460;-81
2023/03/25 04:28:22;;;;;;;4.20;2.40;;;19.70;49.90;;;;;;5068286;28;20500;-80
2023/03/25 04:30:54;;;;;;;2.60;2.40;;;19.70;50.00;;;;;;5067182;28;20454;-80
2023/03/25 04:33:22;;;;;;;3.00;2.23;;;19.70;49.90;;;;;;5067398;28;20446;-81
2023/03/25 04:35:50;;;;;;;5.17;2.40;;;19.70;50.00;;;;;;5072949;28;20454;-80
2023/03/25 04:38:19;;;;;;;3.20;2.50;;;19.70;50.00;;;;;;5066091;28;20560;-81
2023/03/25 04:40:48;;;;;;;3.43;2.23;;;19.70;50.00;;;;;;5072497;28;20460;-80
2023/03/25 04:43:17;;;;;;;4.93;2.67;;;19.60;50.00;;;;;;5070026;28;20537;-81
2023/03/25 04:45:52;;;;;;;2.13;1.70;;;19.70;50.10;;;;;;5067524;28;20453;-80
2023/03/25 04:48:24;;;;;;;3.63;2.37;;;19.60;50.00;;;;;;5069594;28;20515;-81
2023/03/25 04:50:54;;;;;;;2.27;2.07;;;19.60;50.10;;;;;;5072642;28;20434;-79
2023/03/25 04:53:22;;;;;;;2.43;2.20;;;19.60;50.00;;;;;;5073017;28;20457;-81
2023/03/25 04:55:51;;;;;;;2.20;1.80;;;19.60;50.10;;;;;;5072639;28;20446;-79
2023/03/25 04:58:21;;;;;;;3.87;2.30;;;19.60;50.10;;;;;;5078689;28;20584;-81
2023/03/25 05:00:50;;;;;;;2.50;2.30;;;19.60;50.30;;;;;;5073796;28;20449;-80
2023/03/25 05:03:22;;;;;;;3.83;2.17;;;19.50;50.20;;;;;;5067875;28;20475;-81
2023/03/25 05:05:51;;;;;;;4.57;2.50;;;19.50;50.20;;;;;;5072724;28;20457;-81
2023/03/25 05:08:21;;;;;;;2.00;1.90;;;19.50;50.30;;;;;;5083063;28;20483;-81
2023/03/25 05:10:49;;;;;;;5.13;2.33;;;19.50;50.40;;;;;;5080663;28;20453;-81
2023/03/25 05:13:18;;;;;;;3.63;2.00;;;19.60;50.40;;;;;;5078983;28;20469;-81
2023/03/25 05:15:47;;;;;;;2.07;1.87;;;19.50;50.30;;;;;;5077409;28;20452;-81
2023/03/25 05:18:16;;;;;;;2.87;2.13;;;19.50;50.30;;;;;;5080172;28;20487;-80
2023/03/25 05:20:45;;;;;;;2.00;1.80;;;19.50;50.40;;;;;;5080432;28;20476;-83
2023/03/25 05:23:15;;;;;;;2.20;2.03;;;19.50;50.40;;;;;;5074590;28;20469;-81
2023/03/25 05:25:43;;;;;;;2.50;2.17;;;19.50;50.50;;;;;;5075453;28;20447;-79
2023/03/25 05:28:12;;;;;;;2.07;1.97;;;19.50;50.40;;;;;;5082112;28;20529;-81
2023/03/25 05:30:44;;;;;;;3.90;2.50;;;19.50;50.40;;;;;;5083997;28;20502;-81
2023/03/25 05:33:14;;;;;;;2.93;2.03;;;19.50;50.50;;;;;;5069421;28;20453;-80
2023/03/25 05:35:42;;;;;;;3.63;2.43;;;19.50;50.40;;;;;;5076644;28;20454;-81
2023/03/25 05:38:12;;;;;;;5.27;2.50;;;19.50;50.60;;;;;;5077860;28;20457;-82
2023/03/25 05:40:40;;;;;;;3.27;1.87;;;19.50;50.50;;;;;;5091381;28;20453;-81
2023/03/25 05:43:08;;;;;;;4.47;1.97;;;19.50;50.40;;;;;;5095599;28;20457;-83
2023/03/25 05:45:36;;;;;;;3.20;2.30;;;19.50;50.50;;;;;;5092691;28;20448;-82
2023/03/25 05:48:07;;;;;;;2.93;2.40;;;19.50;50.50;;;;;;5093841;28;20566;-82
2023/03/25 05:50:35;;;;;;;2.73;2.00;;;19.50;50.60;;;;;;5093992;28;20438;-82
2023/03/25 05:53:04;;;;;;;4.97;2.00;;;19.50;50.40;;;;;;5069994;28;20450;-82
2023/03/25 05:55:32;;;;;;;3.20;2.17;;;19.50;50.50;;;;;;5071902;28;20485;-80
2023/03/25 05:58:05;;;;;;;3.00;2.00;;;19.50;50.40;;;;;;5077464;28;20469;-81
2023/03/25 06:00:34;;;;;;;4.30;2.37;;;19.50;50.50;;;;;;5077447;28;20449;-81
2023/03/25 06:03:07;;;;;;;3.40;2.13;;;19.50;50.70;;;;;;5079535;28;20556;-82
2023/03/25 06:05:38;;;;;;;3.13;2.10;;;19.50;50.50;;;;;;5072431;28;20451;-81
2023/03/25 06:08:07;;;;;;;2.10;1.90;;;19.50;50.50;;;;;;5074289;28;20497;-82
2023/03/25 06:10:35;;;;;;;2.47;1.80;;;19.50;50.50;;;;;;5080277;28;20461;-81
2023/03/25 06:13:03;;;;;;;4.97;2.40;;;19.50;50.50;;;;;;5075423;28;20457;-82
2023/03/25 06:15:37;;;;;;;4.57;2.20;;;19.50;50.40;;;;;;5076526;28;20450;-82
2023/03/25 06:18:09;;;;;;;4.00;2.20;;;19.40;50.40;;;;;;5079143;28;20470;-83
2023/03/25 06:20:37;;;;;;;2.20;2.00;;;19.50;50.50;;;;;;5080678;28;20450;-82
2023/03/25 06:23:06;;;;;;;3.80;2.10;;;19.50;50.40;;;;;;5080510;28;20476;-82
2023/03/25 06:25:37;;;;;;;3.23;2.03;;;19.60;50.40;;;;;;5079435;28;20454;-82
2023/03/25 06:28:05;;;;;;;1.80;1.70;;;19.50;50.40;;;;;;5073745;28;20477;-82
2023/03/25 06:30:33;;;;;;;3.43;2.10;;;19.60;50.50;;;;;;5078770;28;20475;-82
2023/03/25 06:33:04;;;;;;;2.20;2.00;;;19.60;50.50;;;;;;5080707;28;20454;-82
2023/03/25 06:35:34;;;;;;;2.70;2.00;;;19.60;50.40;;;;;;5080396;28;20461;-81
2023/03/25 06:38:02;;;;;;;2.47;1.80;;;19.60;50.30;;;;;;5074300;28;20473;-82
2023/03/25 06:40:30;;;;;;;3.80;2.20;;;19.60;50.40;;;;;;5081010;28;20464;-82
2023/03/25 06:42:58;;;;;;;2.75;2.00;;;19.60;50.40;;;;;;5077220;28;20453;-82
2023/03/25 06:45:27;;;;;;;4.20;1.90;;;19.60;50.40;;;;;;5073041;28;20442;-82
2023/03/25 06:47:55;;;;;;;8.80;2.00;;;19.60;50.40;;;;;;5079734;28;20473;-83
2023/03/25 06:50:22;;;;;;;1.97;1.87;;;19.60;50.30;;;;;;5081030;28;20466;-81
2023/03/25 06:52:52;;;;;;;2.37;2.17;;;19.60;50.30;;;;;;5075527;28;20450;-82
2023/03/25 06:55:20;;;;;;;4.93;2.07;;;19.60;50.30;;;;;;5076495;28;20462;-82
2023/03/25 06:57:48;;;;;;;3.30;1.93;;;19.60;50.30;;;;;;5079899;28;20476;-82
2023/03/25 07:00:22;;;;;;;3.83;1.90;;;19.60;50.40;;;;;;5072415;28;20450;-82
2023/03/25 07:02:50;;;;;;;3.00;2.20;;;19.50;50.40;;;;;;5073829;28;20517;-82
2023/03/25 07:05:18;;;;;;;6.83;2.20;;;19.60;50.50;;;;;;5078346;28;20541;-82
2023/03/25 07:07:46;;;;;;;2.40;2.20;;;19.60;50.40;;;;;;5075420;28;20478;-82
2023/03/25 07:10:15;;;;;;;3.53;2.03;;;19.60;50.30;;;;;;5075873;28;20545;-82
2023/03/25 07:12:43;;;;;;;1.80;1.70;;;19.60;50.40;;;;;;5070948;28;20454;-81
2023/03/25 07:15:11;;;;;;;2.20;1.80;;;19.70;50.30;;;;;;5080147;28;20450;-82
2023/03/25 07:17:39;;;;;;;1.97;1.80;;;19.60;50.30;;;;;;5077669;28;20462;-82
2023/03/25 07:20:09;;;;;;;2.47;1.80;;;19.60;50.40;;;;;;5077077;28;20997;-82
2023/03/25 07:22:40;;;;;;;5.33;2.17;;;19.60;50.10;;;;;;5075792;28;20480;-82
2023/03/25 07:25:08;;;;;;;2.87;1.63;;;19.60;50.10;;;;;;5075510;28;20470;-81
2023/03/25 07:27:38;;;;;;;2.10;1.80;;;19.50;50.10;;;;;;5084382;28;20497;-78
2023/03/25 07:30:08;;;;;;;3.93;1.83;;;19.50;50.00;;;;;;5073575;28;21052;-78
2023/03/25 07:32:36;;;;;;;2.07;1.87;;;19.50;50.20;;;;;;5083037;28;20479;-83
2023/03/25 07:35:05;;;;;;;2.90;1.90;;;19.50;50.20;;;;;;5083358;28;20528;-81
2023/03/25 07:37:33;;;;;;;3.23;2.00;;;19.50;50.20;;;;;;5077648;28;20488;-83
2023/03/25 07:40:01;;;;;;;2.70;1.80;;;19.40;50.20;;;;;;5079347;28;20450;-81
2023/03/25 07:42:29;;;;;;;1.73;1.60;;;19.40;50.30;;;;;;5084440;28;20480;-82
2023/03/25 07:44:58;;;;;;;4.10;1.80;;;19.30;50.20;;;;;;5085592;28;20473;-80
2023/03/25 07:47:28;;;;;;;3.60;2.00;;;19.30;50.30;;;;;;5081216;28;20488;-81
2023/03/25 07:49:56;;;;;;;3.83;1.47;;;19.30;50.10;;;;;;5077359;28;20541;-82
2023/03/25 07:52:24;;;;;;;3.53;2.07;;;19.30;50.40;;;;;;5077946;28;20459;-82
2023/03/25 07:54:52;;;;;;;3.50;1.77;;;19.30;50.40;;;;;;5077144;28;20503;-81
2023/03/25 07:57:20;;;;;;;2.63;1.60;;;19.20;50.40;;;;;;5080377;28;20466;-81
2023/03/25 07:59:48;;;;;;;3.20;1.73;;;19.30;50.50;;;;;;5076417;28;20449;-80
2023/03/25 08:02:17;;;;;;;3.33;1.77;;;19.30;50.40;;;;;;5079045;28;20465;-81
2023/03/25 08:04:46;;;;;;;2.53;2.10;;;19.30;50.50;;;;;;5082661;28;20453;-82
2023/03/25 08:07:15;;;;;;;2.43;1.60;;;19.40;51.10;;;;;;5086903;28;20462;-83
2023/03/25 08:09:43;;;;;;;3.47;2.00;;;19.40;50.60;;;;;;5085701;28;20441;-83
2023/03/25 08:12:11;;;;;;;2.63;1.37;;;19.50;50.50;;;;;;5079000;28;20854;-83
2023/03/25 08:14:39;;;;;;;3.53;1.70;;;19.50;50.50;;;;;;5076852;28;20446;-83
2023/03/25 08:17:07;;;;;;;3.90;1.90;;;19.50;50.40;;;;;;5074570;28;20494;-82
2023/03/25 08:19:36;;;;;;;1.63;1.53;;;19.60;50.60;;;;;;5084815;28;20456;-83
2023/03/25 08:22:04;;;;;;;1.90;1.73;;;19.80;50.70;;;;;;5077588;28;20513;-84
2023/03/25 08:24:33;;;;;;;4.27;1.67;;;20.00;50.40;;;;;;5077856;28;20537;-83
2023/03/25 08:27:01;;;;;;;1.80;1.70;;;20.20;50.60;;;;;;5081234;28;20469;-84
2023/03/25 08:29:43;;;;;;;2.80;1.63;;;20.30;50.30;;;;;;5081583;28;20476;-83
2023/03/25 08:32:11;;;;;;;3.17;1.60;;;20.50;50.60;;;;;;5078923;28;20528;-84
2023/03/25 08:34:40;;;;;;;2.33;1.43;;;20.70;50.40;;;;;;5069969;28;20548;-83
2023/03/25 08:37:09;;;;;;;6.03;1.97;;;20.80;50.30;;;;;;5076126;28;20523;-83
2023/03/25 08:39:38;;;;;;;4.07;1.80;;;21.00;50.50;;;;;;5076493;28;20892;-82
2023/03/25 08:42:07;;;;;;;1.73;1.37;;;21.10;50.40;;;;;;5083240;28;20532;-81
2023/03/25 08:44:35;;;;;;;4.43;1.60;;;21.20;50.50;;;;;;5079260;28;20564;-83
2023/03/25 08:47:04;;;;;;;1.50;1.40;;;21.40;50.50;;;;;;5080056;28;20485;-84
2023/03/25 08:49:32;;;;;;;2.17;1.50;;;21.40;50.30;;;;;;5076221;28;20453;-83
2023/03/25 08:52:03;;;;;;;2.30;1.63;;;21.50;50.30;;;;;;5076612;28;20481;-82
2023/03/25 08:54:31;;;;;;;1.93;1.40;;;21.60;50.40;;;;;;5073724;28;20528;-83
2023/03/25 08:56:59;;;;;;;4.57;1.80;;;21.50;50.00;;;;;;5078188;28;20477;-82
2023/03/25 08:59:27;;;;;;;1.37;1.27;;;21.50;50.10;;;;;;5080462;28;20507;-83
2023/03/25 09:01:55;;;;;;;4.17;1.90;;;21.50;50.00;;;;;;5067829;28;20478;-81
2023/03/25 09:04:26;;;;;;;1.60;1.50;;;21.50;50.50;;;;;;5080347;28;20456;-80
2023/03/25 09:06:55;;;;;;;2.20;1.80;;;21.40;50.20;;;;;;5075280;28;20469;-80
2023/03/25 09:09:40;;;;;;;2.23;1.60;;;21.40;50.20;;;;;;5075775;28;20509;-84
2023/03/25 09:12:08;;;;;;;2.90;1.93;;;21.30;50.30;;;;;;5076215;28;20453;-83
2023/03/25 09:14:38;;;;;;;3.80;1.60;;;21.20;50.40;;;;;;5074083;28;20465;-83
2023/03/25 09:17:06;;;;;;;7.33;2.10;;;21.10;50.30;;;;;;5075111;28;20477;-82
2023/03/25 09:19:36;;;;;;;1.87;1.50;;;21.00;50.40;;;;;;5074899;28;20875;-81
2023/03/25 09:22:05;;;;;;;2.37;1.70;;;20.90;50.30;;;;;;5073548;28;20470;-80
2023/03/25 09:24:34;;;;;;;3.57;1.50;;;20.90;50.40;;;;;;5072811;28;20508;-82
2023/03/25 09:27:04;;;;;;;3.60;1.90;;;20.80;50.50;;;;;;5073993;28;20500;-81
2023/03/25 09:29:32;;;;;;;3.63;1.80;;;20.80;50.60;;;;;;5073361;28;20420;-81
2023/03/25 09:32:01;;;;;;;3.83;1.80;;;20.70;51.30;;;;;;5074597;28;20500;-80
2023/03/25 09:34:29;;;;;;;8.33;3.13;;;20.70;50.80;;;;;;5070502;28;20525;-80
2023/03/25 09:36:57;;;;;;;5.13;2.20;;;20.60;50.90;;;;;;5073577;28;20496;-80
2023/03/25 09:39:26;;;;;;;2.60;2.37;;;20.60;50.80;;;;;;5069488;28;20481;-80
2023/03/25 09:42:04;;;;;;;4.70;2.03;;;20.50;50.80;;;;;;5078656;28;20456;-81
2023/03/25 09:44:34;;;;;;;2.80;2.10;;;20.50;51.10;;;;;;5095917;28;20473;-81
2023/03/25 09:47:02;;;;;;;3.40;2.60;;;20.40;51.00;;;;;;5088771;28;20472;-80
2023/03/25 09:49:36;;;;;;;5.30;2.50;;;20.40;51.00;;;;;;5096611;28;20490;-81
2023/03/25 09:52:04;;;;;;;5.67;2.03;;;20.40;51.00;;;;;;5081169;28;20484;-80
2023/03/25 09:54:34;;;;;;;2.53;1.93;;;20.30;51.10;;;;;;5077713;28;20476;-80
2023/03/25 09:57:07;;;;;;;2.93;2.30;;;20.30;51.10;;;;;;5072103;28;20887;-80
2023/03/25 09:59:56;;;;;;;2.50;2.30;;;20.30;51.20;;;;;;5073725;28;20457;-80
2023/03/25 10:02:30;;;;;;;3.17;2.40;;;20.40;51.20;;;;;;5077401;28;20453;-81
2023/03/25 10:05:17;;;;;;;3.70;1.97;;;20.40;51.10;;;;;;5079924;28;20453;-80
2023/03/25 10:07:52;;;;;;;2.93;2.00;;;20.40;51.10;;;;;;5078694;28;20496;-82
2023/03/25 10:10:25;;;;;;;2.80;2.37;;;20.40;51.10;;;;;;5078908;28;20451;-81
2023/03/25 10:12:58;;;;;;;2.50;2.07;;;20.30;50.90;;;;;;5079774;28;20463;-81
2023/03/25 10:15:29;;;;;;;3.80;2.50;;;20.30;51.20;;;;;;5071058;28;20468;-82
2023/03/25 10:18:04;;;;;;;2.87;2.00;;;20.60;51.70;;;;;;5075432;28;20470;-82
2023/03/25 10:20:40;;;;;;;2.70;2.30;;;20.90;51.40;;;;;;5079136;28;20902;-82
2023/03/25 10:23:13;;;;;;;3.03;2.20;;;20.90;50.60;;;;;;5077016;28;20453;-82
2023/03/25 10:25:42;;;;;;;2.90;2.20;;;21.10;50.80;;;;;;5081029;28;20504;-81
2023/03/25 10:28:16;;;;;;;2.70;2.50;;;21.20;50.80;;;;;;5081080;28;20468;-82
2023/03/25 10:30:45;;;;;;;2.60;2.20;;;21.60;51.30;;;;;;5076214;28;20465;-83
2023/03/25 10:33:17;;;;;;;2.80;2.20;;;22.10;51.10;;;;;;5077871;28;20465;-81
2023/03/25 10:35:47;;;;;;;2.80;2.43;;;22.40;50.40;;;;;;5076933;28;20450;-81
2023/03/25 10:38:19;;;;;;;3.30;2.33;;;22.60;49.90;;;;;;5081712;28;20486;-82
2023/03/25 10:40:51;;;;;;;2.67;2.30;;;22.60;49.80;;;;;;5078221;28;20455;-82
2023/03/25 10:43:26;;;;;;;3.77;2.70;;;22.60;49.70;;;;;;5082249;28;20457;-83
2023/03/25 10:45:56;;;;;;;5.40;2.40;;;22.60;49.40;;;;;;5082523;28;20463;-83
2023/03/25 10:48:25;;;;;;;3.30;2.10;;;22.50;49.40;;;;;;5073500;28;20487;-82
2023/03/25 10:50:55;;;;;;;2.10;2.00;;;22.50;49.60;;;;;;5078086;28;20477;-81
2023/03/25 10:53:25;;;;;;;2.47;1.90;;;22.40;49.60;;;;;;5079765;28;20476;-80
2023/03/25 10:55:56;;;;;;;2.87;2.20;;;22.30;49.50;;;;;;5078444;28;20458;-82
2023/03/25 10:58:26;;;;;;;3.13;2.10;;;22.20;49.60;;;;;;5081551;28;20508;-83
2023/03/25 11:00:54;;;;;;;2.73;1.90;;;22.30;49.80;;;;;;5075447;28;20417;-83
2023/03/25 11:03:26;;;;;;;2.50;2.00;;;22.40;50.50;;;;;;5075893;28;20449;-82
2023/03/25 11:05:55;;;;;;;4.63;2.47;;;22.90;50.60;;;;;;5078428;28;20480;-84
2023/03/25 11:08:24;;;;;;;2.70;2.00;;;23.40;50.50;;;;;;5079847;28;20451;-82
2023/03/25 11:10:55;;;;;;;3.03;2.07;;;23.90;50.20;;;;;;5084654;28;20428;-83
2023/03/25 11:13:26;;;;;;;3.33;2.20;;;24.50;49.90;;;;;;5089699;28;20561;-84
2023/03/25 11:15:56;;;;;;;2.87;2.23;;;24.80;48.80;;;;;;5077046;28;20424;-82
2023/03/25 11:18:26;;;;;;;3.37;2.47;;;25.10;48.20;;;;;;5079526;28;20481;-82
2023/03/25 11:20:56;;;;;;;5.80;2.17;;;25.50;48.70;;;;;;5070866;28;20454;-84
2023/03/25 11:23:26;;;;;;;3.10;2.30;;;26.70;47.50;;;;;;5078970;28;20453;-83
2023/03/25 11:25:54;;;;;;;4.57;2.60;;;26.70;45.10;;;;;;5078121;28;20441;-83
2023/03/25 11:28:38;;;;;;;2.63;2.37;;;26.10;45.40;;;;;;5079784;28;20481;-81
2023/03/25 11:31:09;;;;;;;2.40;2.20;;;25.60;46.00;;;;;;5073205;28;20454;-81
2023/03/25 11:33:37;;;;;;;4.73;2.30;;;25.10;46.60;;;;;;5075349;28;20445;-81
2023/03/25 11:36:25;;;;;;;5.47;2.50;;;24.70;47.00;;;;;;5075713;28;20446;-80
2023/03/25 11:38:57;;;;;;;5.03;2.13;;;24.40;47.60;;;;;;5065956;28;20808;-82
2023/03/25 11:41:29;;;;;;;3.50;2.50;;;24.10;47.90;;;;;;5075000;28;20431;-82
2023/03/25 11:43:58;;;;;;;2.40;2.20;;;24.20;48.90;;;;;;5074348;28;20425;-82
2023/03/25 11:46:30;;;;;;;2.73;1.87;;;26.10;50.30;;;;;;5075185;28;20471;-83
2023/03/25 11:48:58;;;;;;;3.43;2.50;;;27.10;44.00;;;;;;5073513;28;20504;-82
2023/03/25 11:51:28;;;;;;;2.60;2.40;;;26.60;43.70;;;;;;5075449;28;20429;-83
2023/03/25 11:53:59;;;;;;;2.30;2.10;;;26.00;44.30;;;;;;5065654;28;20519;-82
2023/03/25 11:56:33;;;;;;;3.03;2.10;;;25.40;45.30;;;;;;5072568;28;20445;-85
2023/03/25 11:59:02;;;;;;;4.20;2.50;;;24.90;46.00;;;;;;5076266;28;20449;-82
2023/03/25 12:01:38;;;;;;;2.30;2.10;;;24.50;46.70;;;;;;5083624;28;20446;-82
2023/03/25 12:04:08;;;;;;;3.17;2.07;;;24.20;47.30;;;;;;5077693;28;20512;-82
2023/03/25 12:06:37;;;;;;;3.83;2.10;;;24.00;47.80;;;;;;5080296;28;20487;-81
2023/03/25 12:09:08;;;;;;;3.00;2.23;;;23.90;48.00;;;;;;5072295;28;20485;-83
2023/03/25 12:11:39;;;;;;;2.47;2.17;;;24.30;49.90;;;;;;5077115;28;20428;-82
2023/03/25 12:14:19;;;;;;;2.70;2.10;;;24.40;47.80;;;;;;5077125;28;20424;-83
2023/03/25 12:16:50;;;;;;;2.87;2.20;;;24.90;48.60;;;;;;5072555;28;20548;-83
2023/03/25 12:19:23;;;;;;;1.97;1.83;;;26.30;49.40;;;;;;5075024;28;20464;-81
2023/03/25 12:22:01;;;;;;;2.17;1.90;;;28.10;43.20;;;;;;5076226;28;20449;-82
2023/03/25 12:24:37;;;;;;;1.70;1.60;;;29.60;40.30;;;;;;5071793;28;20450;-82
2023/03/25 12:27:15;;;;;;;1.63;1.53;;;29.00;40.50;;;;;;5078153;28;20481;-82
2023/03/25 12:29:47;;;;;;;3.43;2.27;;;28.50;42.00;;;;;;5078358;28;20446;-84
2023/03/25 12:32:30;;;;;;;24.40;12.40;;;28.00;42.00;;;;;;5075256;28;20430;-83
2023/03/25 12:35:09;;;;;;;30.50;15.60;;;29.30;41.90;;;;;;5069732;28;20528;-83
2023/03/25 12:37:43;;;;;;;38.73;15.17;;;29.20;38.70;;;;;;5076398;28;20448;-77
2023/03/25 12:40:26;;;;;;;44.00;15.63;;;28.50;39.60;;;;;;5077735;28;20426;-78
2023/03/25 12:42:58;;;;;;;35.03;14.33;;;27.80;41.50;;;;;;5069796;28;20460;-78
2023/03/25 12:45:41;;;;;;;28.13;13.07;;;27.20;43.00;;;;;;5073462;28;20430;-80
2023/03/25 12:48:13;;;;;;;21.67;12.30;;;26.70;45.00;;;;;;5073157;28;20510;-81
2023/03/25 12:50:46;;;;;;;21.30;12.40;;;26.50;45.50;;;;;;5077476;28;20483;-81
2023/03/25 12:53:38;;;;;;;24.03;10.27;;;26.20;45.80;;;;;;5065409;28;20482;-79
2023/03/25 12:56:16;;;;;;;23.33;11.27;;;25.90;46.70;;;;;;5075227;28;20460;-78
2023/03/25 12:59:01;;;;;;;30.67;10.63;;;26.70;50.80;;;;;;5075061;28;20449;-79
2023/03/25 13:01:35;;;;;;;24.43;11.30;;;28.40;44.50;;;;;;5072402;28;20473;-80
2023/03/25 13:04:21;;;;;;;28.57;10.63;;;28.10;44.40;;;;;;5071663;28;20481;-77